Time;durP1;ratioP1;P1;durP2;ratioP2;P2;SDS_P1;SDS_P2;PMS_P1;PMS_P2;Temp;Humidity;BMP_temperature;BMP_pressure;BME280_temperature;BME280_humidity;BME280_pressure;Samples;Min_cycle;Max_cycle;Signal;HPM_P1;HPM_P2
2023/09/06 00:00:43;;;;;;;5.47;3.77;;;18.00;99.90;;;;;;4197227;28;20205;-76
2023/09/06 00:02:46;;;;;;;5.50;3.53;;;18.00;99.90;;;;;;4197691;28;20210;-76
2023/09/06 00:04:49;;;;;;;6.37;3.50;;;18.00;99.90;;;;;;4188146;28;20750;-75
2023/09/06 00:06:52;;;;;;;6.77;3.30;;;18.00;99.90;;;;;;4185901;28;20214;-75
2023/09/06 00:08:54;;;;;;;5.73;3.40;;;18.00;99.90;;;;;;4195456;28;20217;-76
2023/09/06 00:10:55;;;;;;;7.93;3.73;;;17.90;99.90;;;;;;4196706;28;20217;-77
2023/09/06 00:12:57;;;;;;;5.20;3.37;;;17.90;99.90;;;;;;4187963;28;20214;-76
2023/09/06 00:14:59;;;;;;;4.97;3.43;;;17.90;99.90;;;;;;4187183;28;20201;-76
2023/09/06 00:17:02;;;;;;;7.13;4.30;;;17.80;99.90;;;;;;4188793;28;20218;-76
2023/09/06 00:19:05;;;;;;;5.20;3.90;;;17.80;99.90;;;;;;4190791;28;20265;-76
2023/09/06 00:21:06;;;;;;;5.17;3.53;;;17.80;99.90;;;;;;4190061;28;20230;-76
2023/09/06 00:23:09;;;;;;;5.50;3.50;;;17.80;99.90;;;;;;4187653;28;20205;-77
2023/09/06 00:25:11;;;;;;;6.67;3.60;;;17.80;99.90;;;;;;4192568;28;20262;-76
2023/09/06 00:27:14;;;;;;;7.67;4.23;;;17.80;99.90;;;;;;4190815;28;20273;-76
2023/09/06 00:29:16;;;;;;;5.77;3.90;;;17.80;99.90;;;;;;4188111;28;20543;-76
2023/09/06 00:31:18;;;;;;;6.67;3.93;;;17.70;99.90;;;;;;4189843;28;20245;-77
2023/09/06 00:33:21;;;;;;;7.37;4.27;;;17.70;99.90;;;;;;4183733;28;20202;-77
2023/09/06 00:35:24;;;;;;;6.10;4.17;;;17.70;99.90;;;;;;4185300;28;20221;-77
2023/09/06 00:37:35;;;;;;;5.67;3.73;;;17.60;99.90;;;;;;4190236;28;20606;-77
2023/09/06 00:39:35;;;;;;;7.30;4.17;;;17.60;99.90;;;;;;4187361;28;20211;-75
2023/09/06 00:41:40;;;;;;;4.87;3.37;;;17.50;99.90;;;;;;4194743;28;20224;-75
2023/09/06 00:43:42;;;;;;;6.13;3.50;;;17.50;99.90;;;;;;4190297;28;20623;-75
2023/09/06 00:45:45;;;;;;;4.77;3.60;;;17.50;99.90;;;;;;4187393;28;20213;-75
2023/09/06 00:47:47;;;;;;;7.27;4.10;;;17.40;99.90;;;;;;4190497;28;20315;-76
2023/09/06 00:49:49;;;;;;;6.20;3.73;;;17.40;99.90;;;;;;4195042;28;20674;-76
2023/09/06 00:51:52;;;;;;;5.67;3.73;;;17.30;99.90;;;;;;4186445;28;20225;-75
2023/09/06 00:53:54;;;;;;;5.60;4.03;;;17.30;99.90;;;;;;4183035;28;20251;-75
2023/09/06 00:55:58;;;;;;;6.33;3.80;;;17.30;99.90;;;;;;4190201;28;20698;-75
2023/09/06 00:58:00;;;;;;;5.60;3.63;;;17.20;99.90;;;;;;4188680;28;20217;-75
2023/09/06 01:00:05;;;;;;;6.37;3.77;;;17.20;99.90;;;;;;4186681;28;20623;-75
2023/09/06 01:02:08;;;;;;;8.07;4.23;;;17.20;99.90;;;;;;4194472;28;20313;-75
2023/09/06 01:04:10;;;;;;;6.83;4.20;;;17.20;99.90;;;;;;4193525;28;20244;-75
2023/09/06 01:06:16;;;;;;;6.47;3.63;;;17.10;99.90;;;;;;4182898;28;20212;-75
2023/09/06 01:08:28;;;;;;;6.57;3.70;;;17.10;99.90;;;;;;4191229;28;20295;-76
2023/09/06 01:10:30;;;;;;;7.67;4.37;;;17.10;99.90;;;;;;4190408;28;20226;-75
2023/09/06 01:12:34;;;;;;;6.13;4.07;;;17.00;99.90;;;;;;4193346;28;20208;-76
2023/09/06 01:14:37;;;;;;;8.63;4.20;;;17.00;99.90;;;;;;4188504;28;20286;-75
2023/09/06 01:16:42;;;;;;;6.53;3.80;;;17.00;99.90;;;;;;4187480;28;20219;-75
2023/09/06 01:18:43;;;;;;;7.07;4.00;;;16.90;99.90;;;;;;4185642;28;20213;-75
2023/09/06 01:20:52;;;;;;;5.97;4.07;;;16.90;99.90;;;;;;4185623;28;20247;-75
2023/09/06 01:23:05;;;;;;;5.93;3.70;;;16.90;99.90;;;;;;4188625;28;20282;-76
2023/09/06 01:25:11;;;;;;;4.90;3.80;;;16.90;99.90;;;;;;4191375;28;20223;-75
2023/09/06 01:27:14;;;;;;;5.33;3.93;;;16.80;99.90;;;;;;4189754;28;20618;-75
2023/09/06 01:29:15;;;;;;;7.57;4.30;;;16.80;99.90;;;;;;4187403;28;20850;-76
2023/09/06 01:31:17;;;;;;;5.47;3.83;;;16.80;99.90;;;;;;4186211;28;20228;-75
2023/09/06 01:33:19;;;;;;;8.73;3.83;;;16.70;99.90;;;;;;4193116;28;20291;-76
2023/09/06 01:35:21;;;;;;;6.37;4.13;;;16.70;99.90;;;;;;4187246;28;20267;-76
2023/09/06 01:37:23;;;;;;;4.87;4.03;;;16.70;99.90;;;;;;4190998;28;20267;-75
2023/09/06 01:39:25;;;;;;;7.90;4.17;;;16.70;99.90;;;;;;4191478;28;20662;-75
2023/09/06 01:41:28;;;;;;;4.90;3.80;;;16.60;99.90;;;;;;4188504;28;21535;-75
2023/09/06 01:43:31;;;;;;;6.20;4.10;;;16.60;99.90;;;;;;4194913;28;20212;-75
2023/09/06 01:45:35;;;;;;;8.13;4.13;;;16.60;99.90;;;;;;4189737;28;20209;-75
2023/09/06 01:47:37;;;;;;;5.93;4.13;;;16.60;99.90;;;;;;4192303;28;20219;-76
2023/09/06 01:49:39;;;;;;;5.63;4.17;;;16.50;99.90;;;;;;4185328;28;20254;-75
2023/09/06 01:51:41;;;;;;;4.80;4.00;;;16.50;99.90;;;;;;4192108;28;20231;-75
2023/09/06 01:53:43;;;;;;;5.77;4.03;;;16.50;99.90;;;;;;4194501;28;20243;-75
2023/09/06 01:55:44;;;;;;;5.77;3.77;;;16.50;99.90;;;;;;4190664;28;20212;-75
2023/09/06 01:57:47;;;;;;;6.83;4.30;;;16.50;99.90;;;;;;4186009;28;20201;-76
2023/09/06 01:59:50;;;;;;;6.73;4.30;;;16.50;99.90;;;;;;4187035;28;20219;-75
2023/09/06 02:01:54;;;;;;;5.97;4.13;;;16.50;99.90;;;;;;4189096;28;20232;-76
2023/09/06 02:03:56;;;;;;;6.63;4.40;;;16.50;99.90;;;;;;4208170;28;20263;-75
2023/09/06 02:05:58;;;;;;;6.90;4.57;;;16.50;99.90;;;;;;4195071;28;20221;-75
2023/09/06 02:07:59;;;;;;;7.30;4.20;;;16.40;99.90;;;;;;4188383;28;20288;-75
2023/09/06 02:10:03;;;;;;;6.50;4.30;;;16.40;99.90;;;;;;4193917;28;20193;-75
2023/09/06 02:12:25;;;;;;;5.30;4.13;;;16.40;99.90;;;;;;4189698;28;20254;-75
2023/09/06 02:14:28;;;;;;;6.70;4.00;;;16.40;99.90;;;;;;4196530;28;20260;-75
2023/09/06 02:16:31;;;;;;;7.80;4.67;;;16.30;99.90;;;;;;4185604;28;20307;-75
2023/09/06 02:18:33;;;;;;;6.97;4.37;;;16.30;99.90;;;;;;4188923;28;20197;-75
2023/09/06 02:20:35;;;;;;;7.03;4.40;;;16.30;99.90;;;;;;4196151;28;20269;-75
2023/09/06 02:22:36;;;;;;;10.53;5.03;;;16.30;99.90;;;;;;4184622;28;20214;-75
2023/09/06 02:24:39;;;;;;;7.07;4.57;;;16.20;99.90;;;;;;4192544;28;20496;-75
2023/09/06 02:26:41;;;;;;;8.33;4.40;;;16.20;99.90;;;;;;4187358;28;20220;-75
2023/09/06 02:28:43;;;;;;;7.03;4.47;;;16.20;99.90;;;;;;4193155;28;20261;-75
2023/09/06 02:30:46;;;;;;;6.20;4.70;;;16.20;99.90;;;;;;4187373;28;20759;-75
2023/09/06 02:32:49;;;;;;;6.73;4.90;;;16.20;99.90;;;;;;4192801;28;20567;-75
2023/09/06 02:34:51;;;;;;;8.27;4.90;;;16.10;99.90;;;;;;4193184;28;20216;-75
2023/09/06 02:36:52;;;;;;;8.27;5.13;;;16.10;99.90;;;;;;4196321;28;20631;-75
2023/09/06 02:38:55;;;;;;;7.83;5.00;;;16.10;99.90;;;;;;4193161;28;20262;-75
2023/09/06 02:40:56;;;;;;;8.10;5.30;;;16.10;99.90;;;;;;4191183;28;20235;-75
2023/09/06 02:42:57;;;;;;;7.47;4.67;;;16.10;99.90;;;;;;4195204;28;20273;-75
2023/09/06 02:44:59;;;;;;;9.20;4.70;;;16.00;99.90;;;;;;4189733;28;20268;-75
2023/09/06 02:47:03;;;;;;;9.13;4.57;;;16.00;99.90;;;;;;4192404;28;20669;-76
2023/09/06 02:49:11;;;;;;;7.33;4.83;;;16.00;99.90;;;;;;4194326;28;20298;-75
2023/09/06 02:51:13;;;;;;;8.30;4.87;;;16.00;99.90;;;;;;4184228;28;20567;-75
2023/09/06 02:53:19;;;;;;;7.63;4.97;;;16.00;99.90;;;;;;4192831;28;20211;-75
2023/09/06 02:55:21;;;;;;;6.67;4.50;;;16.00;99.90;;;;;;4191387;28;20203;-74
2023/09/06 02:57:23;;;;;;;6.80;4.93;;;16.00;99.90;;;;;;4195658;28;20202;-74
2023/09/06 02:59:28;;;;;;;6.57;4.37;;;15.90;99.90;;;;;;4195439;28;20253;-75
2023/09/06 03:01:30;;;;;;;7.97;4.10;;;15.90;99.90;;;;;;4194470;28;20225;-74
2023/09/06 03:03:34;;;;;;;7.33;4.93;;;15.90;99.90;;;;;;4189608;28;20315;-74
2023/09/06 03:05:41;;;;;;;7.23;4.80;;;15.80;99.90;;;;;;4196028;28;20222;-74
2023/09/06 03:07:43;;;;;;;7.77;4.77;;;15.80;99.90;;;;;;4188708;28;20566;-74
2023/09/06 03:09:45;;;;;;;7.67;4.87;;;15.80;99.90;;;;;;4189943;28;20217;-74
2023/09/06 03:11:48;;;;;;;6.83;4.50;;;15.80;99.90;;;;;;4198620;28;20316;-75
2023/09/06 03:13:55;;;;;;;7.10;4.37;;;15.80;99.90;;;;;;4191955;28;20691;-75
2023/09/06 03:15:59;;;;;;;7.43;4.80;;;15.80;99.90;;;;;;4188787;28;20206;-75
2023/09/06 03:18:01;;;;;;;6.20;4.40;;;15.70;99.90;;;;;;4194270;28;20660;-75
2023/09/06 03:20:33;;;;;;;6.70;4.27;;;15.70;99.90;;;;;;4188360;28;20194;-75
2023/09/06 03:22:28;;;;;;;12.63;4.97;;;15.70;99.90;;;;;;4193266;28;20634;-75
2023/09/06 03:24:31;;;;;;;7.83;4.63;;;15.70;99.90;;;;;;4190066;28;20764;-75
2023/09/06 03:26:33;;;;;;;8.20;5.03;;;15.60;99.90;;;;;;4190366;28;20734;-75
2023/09/06 03:28:34;;;;;;;7.70;4.30;;;15.60;99.90;;;;;;4186022;28;20605;-75
2023/09/06 03:30:38;;;;;;;7.13;4.50;;;15.60;99.90;;;;;;4196465;28;20202;-75
2023/09/06 03:32:42;;;;;;;6.87;4.60;;;15.60;99.90;;;;;;4194467;28;20221;-75
2023/09/06 03:34:45;;;;;;;6.67;4.40;;;15.60;99.90;;;;;;4187846;28;20220;-75
2023/09/06 03:36:51;;;;;;;7.17;4.47;;;15.60;99.90;;;;;;4188143;28;20650;-75
2023/09/06 03:38:55;;;;;;;7.47;4.73;;;15.50;99.90;;;;;;4185451;28;20208;-75
2023/09/06 03:41:01;;;;;;;6.40;4.50;;;15.50;99.90;;;;;;4188330;28;20225;-75
2023/09/06 03:43:04;;;;;;;8.33;4.67;;;15.50;99.90;;;;;;4185481;28;20289;-75
2023/09/06 03:45:15;;;;;;;7.43;4.60;;;15.50;99.90;;;;;;4190020;28;20211;-75
2023/09/06 03:47:17;;;;;;;8.37;4.90;;;15.50;99.90;;;;;;4182314;28;20252;-75
2023/09/06 03:49:19;;;;;;;8.30;4.63;;;15.50;99.90;;;;;;4186053;28;20214;-75
2023/09/06 03:51:21;;;;;;;7.90;5.00;;;15.50;99.90;;;;;;4182667;28;20838;-75
2023/09/06 03:53:25;;;;;;;8.27;5.27;;;15.40;99.90;;;;;;4191847;28;20222;-75
2023/09/06 03:55:27;;;;;;;7.83;5.00;;;15.40;99.90;;;;;;4190920;28;20230;-75
2023/09/06 03:57:29;;;;;;;7.03;4.60;;;15.40;99.90;;;;;;4184933;28;20210;-75
2023/09/06 03:59:35;;;;;;;6.83;4.73;;;15.40;99.90;;;;;;4185322;28;20198;-75
2023/09/06 04:01:37;;;;;;;6.47;4.67;;;15.40;99.90;;;;;;4182295;28;20314;-75
2023/09/06 04:03:40;;;;;;;8.67;5.20;;;15.40;99.90;;;;;;4196279;28;20721;-75
2023/09/06 04:05:42;;;;;;;8.83;4.80;;;15.30;99.90;;;;;;4191049;28;20756;-75
2023/09/06 04:07:44;;;;;;;7.93;5.00;;;15.30;99.90;;;;;;4187229;28;20237;-75
2023/09/06 04:09:48;;;;;;;6.90;4.60;;;15.30;99.90;;;;;;4181708;28;20271;-75
2023/09/06 04:11:50;;;;;;;9.37;5.00;;;15.30;99.90;;;;;;4190242;28;20226;-75
2023/09/06 04:13:55;;;;;;;8.07;5.07;;;15.30;99.90;;;;;;4190839;28;20558;-74
2023/09/06 04:15:57;;;;;;;7.40;5.03;;;15.30;99.90;;;;;;4195020;28;20624;-75
2023/09/06 04:17:59;;;;;;;6.87;4.87;;;15.30;99.90;;;;;;4189296;28;20207;-75
2023/09/06 04:20:10;;;;;;;6.43;4.70;;;15.30;99.90;;;;;;4188231;28;20214;-75
2023/09/06 04:22:18;;;;;;;7.30;5.13;;;15.20;99.90;;;;;;4188249;28;20295;-75
2023/09/06 04:24:21;;;;;;;8.07;5.10;;;15.20;99.90;;;;;;4188678;28;20210;-75
2023/09/06 04:26:25;;;;;;;8.23;4.93;;;15.20;99.90;;;;;;4191549;28;20201;-74
2023/09/06 04:28:27;;;;;;;8.57;5.07;;;15.20;99.90;;;;;;4189096;28;20237;-75
2023/09/06 04:30:29;;;;;;;7.87;4.90;;;15.20;99.90;;;;;;4192141;28;20202;-77
2023/09/06 04:32:31;;;;;;;10.23;5.80;;;15.20;99.90;;;;;;4189780;28;20205;-75
2023/09/06 04:34:33;;;;;;;13.13;7.53;;;15.10;99.90;;;;;;4190521;28;20640;-75
2023/09/06 04:36:36;;;;;;;13.90;7.70;;;15.10;99.90;;;;;;4192904;28;20209;-75
2023/09/06 04:38:38;;;;;;;12.03;7.63;;;15.10;99.90;;;;;;4190120;28;20427;-75
2023/09/06 04:40:43;;;;;;;10.27;6.70;;;15.10;99.90;;;;;;4193531;28;20236;-75
2023/09/06 04:42:47;;;;;;;10.37;6.40;;;15.10;99.90;;;;;;4190696;28;20212;-75
2023/09/06 04:44:49;;;;;;;10.07;6.60;;;15.10;99.90;;;;;;4190184;28;20222;-75
2023/09/06 04:46:51;;;;;;;10.03;6.07;;;15.10;99.90;;;;;;4192227;28;20212;-75
2023/09/06 04:48:55;;;;;;;12.63;5.93;;;15.10;99.90;;;;;;4190061;28;20202;-75
2023/09/06 04:50:59;;;;;;;10.70;5.87;;;15.10;99.90;;;;;;4192676;28;20226;-75
2023/09/06 04:53:01;;;;;;;12.30;5.87;;;15.10;99.90;;;;;;4191574;28;20251;-75
2023/09/06 04:55:06;;;;;;;9.97;5.50;;;15.10;99.90;;;;;;4192511;28;20202;-75
2023/09/06 04:57:11;;;;;;;8.30;5.30;;;15.10;99.90;;;;;;4186437;28;20229;-76
2023/09/06 04:59:14;;;;;;;7.30;5.23;;;15.10;99.90;;;;;;4185918;28;20233;-75
2023/09/06 05:01:16;;;;;;;7.87;5.10;;;15.10;99.90;;;;;;4182317;28;20227;-75
2023/09/06 05:03:18;;;;;;;8.10;5.00;;;15.10;99.90;;;;;;4185148;28;20214;-76
2023/09/06 05:05:21;;;;;;;9.00;5.30;;;15.10;99.90;;;;;;4190924;28;20240;-78
2023/09/06 05:07:23;;;;;;;8.63;5.93;;;15.10;99.90;;;;;;4194551;28;20244;-78
2023/09/06 05:09:25;;;;;;;8.33;5.60;;;15.10;99.90;;;;;;4190591;28;20214;-77
2023/09/06 05:11:27;;;;;;;10.60;5.30;;;15.10;99.90;;;;;;4190109;28;20236;-76
2023/09/06 05:13:28;;;;;;;9.70;5.43;;;15.10;99.90;;;;;;4200936;28;20213;-75
2023/09/06 05:15:31;;;;;;;7.43;4.80;;;15.10;99.90;;;;;;4190223;28;20194;-76
2023/09/06 05:17:33;;;;;;;8.47;5.13;;;15.10;99.90;;;;;;4190453;28;20209;-77
2023/09/06 05:19:35;;;;;;;8.00;5.17;;;15.10;99.90;;;;;;4189329;28;20230;-76
2023/09/06 05:21:37;;;;;;;9.43;5.40;;;15.00;99.90;;;;;;4187451;28;20226;-76
2023/09/06 05:23:39;;;;;;;8.50;5.20;;;15.00;99.90;;;;;;4189241;28;20692;-76
2023/09/06 05:25:42;;;;;;;8.33;5.47;;;15.10;99.90;;;;;;4189492;28;20221;-76
2023/09/06 05:27:43;;;;;;;7.73;5.33;;;15.10;99.90;;;;;;4188351;28;20215;-76
2023/09/06 05:29:45;;;;;;;8.97;5.13;;;15.00;99.90;;;;;;4186014;28;20264;-76
2023/09/06 05:31:50;;;;;;;9.10;5.33;;;15.00;99.90;;;;;;4192134;28;20221;-76
2023/09/06 05:33:52;;;;;;;8.60;5.20;;;15.10;99.90;;;;;;4187723;28;20306;-76
2023/09/06 05:35:54;;;;;;;7.00;4.90;;;15.00;99.90;;;;;;4189213;28;20194;-77
2023/09/06 05:37:56;;;;;;;8.07;5.10;;;15.10;99.90;;;;;;4188654;28;20539;-76
2023/09/06 05:39:58;;;;;;;7.67;5.30;;;15.10;99.90;;;;;;4187799;28;20267;-76
2023/09/06 05:42:00;;;;;;;7.87;5.00;;;15.00;99.90;;;;;;4193150;28;20252;-76
2023/09/06 05:44:02;;;;;;;8.47;5.50;;;15.10;99.90;;;;;;4188302;28;20213;-77
2023/09/06 05:46:04;;;;;;;7.40;4.73;;;15.10;99.90;;;;;;4192225;28;20226;-76
2023/09/06 05:48:07;;;;;;;8.53;5.73;;;15.10;99.90;;;;;;4188373;28;20259;-76
2023/09/06 05:50:10;;;;;;;9.50;6.30;;;15.10;99.90;;;;;;4191831;28;20229;-76
2023/09/06 05:52:12;;;;;;;7.60;5.37;;;15.10;99.90;;;;;;4189175;28;20238;-76
2023/09/06 05:54:14;;;;;;;8.30;5.50;;;15.10;99.90;;;;;;4193386;28;20678;-76
2023/09/06 05:56:16;;;;;;;8.53;6.03;;;15.10;99.90;;;;;;4189451;28;20198;-77
2023/09/06 05:58:18;;;;;;;10.67;6.13;;;15.20;99.90;;;;;;4189485;28;20198;-77
2023/09/06 06:00:21;;;;;;;10.67;5.90;;;15.20;99.90;;;;;;4191432;28;20700;-77
2023/09/06 06:02:24;;;;;;;8.93;6.03;;;15.20;99.90;;;;;;4187771;28;20910;-77
2023/09/06 06:04:27;;;;;;;7.60;5.70;;;15.20;99.90;;;;;;4185006;28;20251;-76
2023/09/06 06:06:29;;;;;;;9.13;5.60;;;15.30;99.90;;;;;;4192615;28;20275;-76
2023/09/06 06:08:31;;;;;;;8.40;5.60;;;15.30;99.90;;;;;;4191602;28;20267;-77
2023/09/06 06:10:34;;;;;;;7.93;5.20;;;15.30;99.90;;;;;;4190882;28;20213;-77
2023/09/06 06:12:38;;;;;;;8.30;4.90;;;15.30;99.90;;;;;;4193507;28;20209;-77
2023/09/06 06:14:41;;;;;;;8.73;5.90;;;15.40;99.90;;;;;;4188821;28;20240;-77
2023/09/06 06:16:43;;;;;;;9.10;5.57;;;15.40;99.90;;;;;;4189933;28;20237;-77
2023/09/06 06:18:47;;;;;;;10.57;5.93;;;15.50;99.90;;;;;;4186769;28;20412;-77
2023/09/06 06:20:50;;;;;;;9.17;5.50;;;15.60;99.90;;;;;;4188293;28;21024;-77
2023/09/06 06:22:52;;;;;;;10.30;5.93;;;15.60;99.90;;;;;;4189233;28;20211;-77
2023/09/06 06:24:54;;;;;;;9.87;5.97;;;15.70;99.90;;;;;;4188588;28;20707;-77
2023/09/06 06:26:56;;;;;;;8.40;5.60;;;15.70;99.90;;;;;;4187912;28;20731;-77
2023/09/06 06:28:58;;;;;;;12.60;5.60;;;15.80;99.90;;;;;;4187346;28;20191;-77
2023/09/06 06:31:00;;;;;;;8.70;5.57;;;15.80;99.90;;;;;;4189904;28;20238;-77
2023/09/06 06:33:02;;;;;;;8.87;5.83;;;15.80;99.90;;;;;;4186363;28;20244;-77
2023/09/06 06:35:06;;;;;;;9.13;5.77;;;16.00;99.90;;;;;;4189755;28;20202;-76
2023/09/06 06:37:09;;;;;;;8.77;5.67;;;16.00;99.90;;;;;;4184814;28;20294;-75
2023/09/06 06:39:11;;;;;;;7.53;5.37;;;16.00;99.90;;;;;;4192308;28;20207;-75
2023/09/06 06:41:19;;;;;;;8.50;5.63;;;16.10;99.90;;;;;;4193714;28;20229;-75
2023/09/06 06:43:20;;;;;;;7.00;4.93;;;16.10;99.90;;;;;;4187763;28;20566;-75
2023/09/06 06:45:22;;;;;;;7.27;4.87;;;16.10;99.90;;;;;;4189792;28;20215;-75
2023/09/06 06:47:24;;;;;;;7.77;5.40;;;16.10;99.90;;;;;;4188435;28;20236;-75
2023/09/06 06:49:26;;;;;;;7.07;5.13;;;16.20;99.90;;;;;;4193807;28;20340;-76
2023/09/06 06:51:31;;;;;;;10.17;5.20;;;16.30;99.90;;;;;;4188554;28;20283;-75
2023/09/06 06:53:34;;;;;;;8.07;4.93;;;16.30;99.90;;;;;;4191779;28;20215;-75
2023/09/06 06:55:37;;;;;;;7.63;4.73;;;16.30;99.90;;;;;;4195069;28;20201;-75
2023/09/06 06:57:39;;;;;;;8.57;5.40;;;16.30;99.90;;;;;;4190243;28;20207;-75
2023/09/06 06:59:40;;;;;;;8.93;4.70;;;16.40;99.90;;;;;;4186778;28;20199;-75
2023/09/06 07:01:41;;;;;;;9.20;5.00;;;16.50;99.90;;;;;;4186756;28;20280;-75
2023/09/06 07:03:43;;;;;;;10.23;5.20;;;16.60;99.90;;;;;;4192346;28;20209;-75
2023/09/06 07:05:46;;;;;;;8.40;5.00;;;16.60;99.90;;;;;;4188816;28;20304;-75
2023/09/06 07:07:48;;;;;;;5.97;4.37;;;16.70;99.90;;;;;;4187856;28;20214;-75
2023/09/06 07:09:52;;;;;;;6.50;4.70;;;16.70;99.90;;;;;;4191018;28;20730;-75
2023/09/06 07:11:53;;;;;;;8.77;5.03;;;16.80;99.90;;;;;;4191167;28;20275;-75
2023/09/06 07:13:55;;;;;;;8.00;5.13;;;16.80;99.90;;;;;;4191229;28;20716;-75
2023/09/06 07:15:56;;;;;;;9.83;4.80;;;16.80;99.90;;;;;;4192546;28;20212;-74
2023/09/06 07:18:01;;;;;;;7.37;4.87;;;16.90;99.90;;;;;;4185408;28;20210;-75
2023/09/06 07:20:05;;;;;;;8.63;4.70;;;17.00;99.90;;;;;;4189537;28;20207;-75
2023/09/06 07:22:06;;;;;;;7.90;4.63;;;17.10;99.90;;;;;;4188619;28;20710;-74
2023/09/06 07:24:13;;;;;;;7.00;4.37;;;17.20;99.90;;;;;;4185292;28;20897;-74
2023/09/06 07:26:16;;;;;;;6.40;4.27;;;17.20;99.90;;;;;;4190475;28;20220;-74
2023/09/06 07:28:18;;;;;;;8.97;4.27;;;17.30;99.90;;;;;;4184897;28;20209;-74
2023/09/06 07:30:20;;;;;;;8.37;4.30;;;17.40;99.90;;;;;;4188575;28;20213;-74
2023/09/06 07:32:22;;;;;;;6.23;4.30;;;17.40;99.90;;;;;;4190035;28;20283;-74
2023/09/06 07:34:23;;;;;;;8.27;4.20;;;17.50;99.90;;;;;;4190687;28;20210;-74
2023/09/06 07:36:25;;;;;;;6.57;4.50;;;17.50;99.90;;;;;;4192104;28;20246;-74
2023/09/06 07:38:27;;;;;;;6.00;4.20;;;17.60;99.90;;;;;;4185856;28;20263;-75
2023/09/06 07:40:29;;;;;;;8.63;4.43;;;17.60;99.90;;;;;;4188209;28;20208;-75
2023/09/06 07:42:37;;;;;;;7.00;4.13;;;17.80;99.90;;;;;;4188757;28;20244;-76
2023/09/06 07:44:39;;;;;;;6.43;4.00;;;18.00;99.90;;;;;;4188771;28;20213;-75
2023/09/06 07:46:43;;;;;;;5.90;3.90;;;18.10;99.90;;;;;;4185636;28;20283;-75
2023/09/06 07:48:45;;;;;;;5.57;3.67;;;18.10;99.90;;;;;;4187746;28;20270;-75
2023/09/06 07:50:48;;;;;;;8.60;3.90;;;18.20;99.90;;;;;;4188617;28;20229;-75
2023/09/06 07:52:50;;;;;;;6.77;3.73;;;18.30;99.90;;;;;;4195812;28;20682;-75
2023/09/06 07:54:52;;;;;;;6.83;3.70;;;18.30;99.90;;;;;;4188006;28;20206;-76
2023/09/06 07:56:54;;;;;;;5.03;3.60;;;18.40;99.90;;;;;;4196715;28;20258;-76
2023/09/06 07:58:57;;;;;;;8.23;3.70;;;18.40;99.90;;;;;;4193467;28;20240;-75
2023/09/06 08:00:59;;;;;;;4.77;3.60;;;18.60;99.90;;;;;;4185450;28;20222;-76
2023/09/06 08:03:00;;;;;;;5.67;3.73;;;18.60;99.90;;;;;;4193571;28;20206;-75
2023/09/06 08:05:02;;;;;;;4.53;3.57;;;18.70;99.90;;;;;;4193391;28;20330;-76
2023/09/06 08:07:04;;;;;;;7.57;3.50;;;18.70;99.90;;;;;;4184715;28;20233;-76
2023/09/06 08:09:06;;;;;;;4.13;3.20;;;18.80;99.90;;;;;;4186920;28;20202;-76
2023/09/06 08:11:09;;;;;;;7.13;3.77;;;18.80;99.90;;;;;;4195109;28;20249;-75
2023/09/06 08:13:11;;;;;;;5.03;3.60;;;18.90;99.90;;;;;;4191533;28;20263;-76
2023/09/06 08:15:13;;;;;;;5.30;3.20;;;19.00;99.90;;;;;;4190718;28;20668;-76
2023/09/06 08:17:15;;;;;;;7.40;3.73;;;19.10;99.90;;;;;;4181736;28;21076;-76
2023/09/06 08:19:17;;;;;;;5.53;3.47;;;19.10;99.90;;;;;;4185154;28;20202;-76
2023/09/06 08:21:19;;;;;;;6.37;3.23;;;19.20;99.90;;;;;;4190593;28;20230;-76
2023/09/06 08:23:21;;;;;;;4.80;3.13;;;19.30;99.90;;;;;;4191386;28;20311;-76
2023/09/06 08:25:23;;;;;;;5.93;3.60;;;19.40;99.90;;;;;;4185350;28;20591;-76
2023/09/06 08:27:25;;;;;;;5.33;3.60;;;19.40;99.90;;;;;;4183066;28;20696;-76
2023/09/06 08:29:27;;;;;;;6.73;3.83;;;19.40;99.90;;;;;;4192029;28;20263;-76
2023/09/06 08:31:30;;;;;;;7.70;3.00;;;19.50;99.90;;;;;;4183492;28;20601;-76
2023/09/06 08:33:32;;;;;;;4.50;3.00;;;19.50;99.90;;;;;;4190710;28;20198;-76
2023/09/06 08:35:34;;;;;;;4.60;3.37;;;19.60;99.90;;;;;;4190883;28;20210;-76
2023/09/06 08:37:35;;;;;;;6.07;3.40;;;19.70;99.90;;;;;;4183925;28;20256;-76
2023/09/06 08:39:37;;;;;;;5.27;3.50;;;19.70;99.90;;;;;;4190371;28;20197;-76
2023/09/06 08:41:40;;;;;;;7.60;3.37;;;19.80;99.90;;;;;;4179960;28;20999;-76
2023/09/06 08:43:43;;;;;;;4.87;3.07;;;19.90;99.90;;;;;;4183446;28;20286;-76
2023/09/06 08:45:50;;;;;;;5.50;3.60;;;19.90;99.90;;;;;;4186968;28;20202;-76
2023/09/06 08:47:53;;;;;;;5.83;3.10;;;20.00;99.90;;;;;;4187585;28;20216;-76
2023/09/06 08:49:56;;;;;;;9.10;3.30;;;20.10;99.90;;;;;;4196115;28;20202;-76
2023/09/06 08:51:59;;;;;;;3.77;2.70;;;20.10;99.90;;;;;;4184667;28;20230;-76
2023/09/06 08:54:03;;;;;;;7.73;3.80;;;20.20;99.90;;;;;;4187861;28;20215;-77
2023/09/06 08:56:07;;;;;;;9.53;4.10;;;20.20;99.90;;;;;;4187037;28;20214;-76
2023/09/06 08:58:08;;;;;;;6.53;3.37;;;20.30;99.90;;;;;;4189655;28;20223;-76
2023/09/06 09:00:13;;;;;;;7.20;4.23;;;20.40;99.90;;;;;;4189870;28;20263;-76
2023/09/06 09:02:16;;;;;;;4.20;3.10;;;20.40;99.90;;;;;;4185221;28;20229;-76
2023/09/06 09:04:19;;;;;;;5.83;3.40;;;20.50;99.90;;;;;;4181876;28;20205;-76
2023/09/06 09:06:21;;;;;;;5.20;3.13;;;20.60;99.90;;;;;;4205187;28;20280;-76
2023/09/06 09:08:23;;;;;;;4.00;3.00;;;20.70;99.90;;;;;;4187949;28;20290;-76
2023/09/06 09:10:28;;;;;;;4.73;3.13;;;20.80;99.90;;;;;;4189006;28;20203;-77
2023/09/06 09:12:31;;;;;;;5.10;3.27;;;20.80;99.90;;;;;;4191291;28;20346;-77
2023/09/06 09:14:33;;;;;;;5.47;3.50;;;20.90;99.90;;;;;;4188606;28;20703;-77
2023/09/06 09:16:35;;;;;;;5.67;3.40;;;21.00;99.90;;;;;;4190035;28;20217;-77
2023/09/06 09:18:38;;;;;;;5.10;3.33;;;21.10;99.90;;;;;;4191382;28;20213;-77
2023/09/06 09:20:44;;;;;;;3.90;2.83;;;21.20;99.90;;;;;;4186991;28;20212;-77
2023/09/06 09:22:47;;;;;;;5.03;3.10;;;21.20;99.90;;;;;;4189179;28;20244;-77
2023/09/06 09:24:57;;;;;;;4.80;2.83;;;21.40;99.90;;;;;;4185751;28;20267;-78
2023/09/06 09:26:59;;;;;;;4.80;3.00;;;21.40;99.90;;;;;;4184984;28;20705;-78
2023/09/06 09:29:04;;;;;;;4.77;2.90;;;21.50;99.90;;;;;;4183787;28;20202;-77
2023/09/06 09:31:09;;;;;;;4.83;2.87;;;21.60;99.90;;;;;;4188943;28;20229;-78
2023/09/06 09:33:11;;;;;;;5.03;2.93;;;21.70;99.90;;;;;;4190535;28;20208;-77
2023/09/06 09:35:13;;;;;;;6.43;3.40;;;21.80;99.90;;;;;;4184295;28;20271;-78
2023/09/06 09:37:16;;;;;;;4.33;3.00;;;21.90;99.90;;;;;;4183442;28;20204;-78
2023/09/06 09:39:19;;;;;;;4.63;3.07;;;21.90;99.90;;;;;;4191360;28;20212;-78
2023/09/06 09:41:21;;;;;;;4.53;2.83;;;22.00;99.90;;;;;;4185610;28;20241;-77
2023/09/06 09:43:22;;;;;;;9.33;3.20;;;22.10;99.90;;;;;;4185851;28;20573;-77
2023/09/06 09:45:25;;;;;;;6.30;3.23;;;22.20;99.90;;;;;;4187314;28;20260;-77
2023/09/06 09:47:29;;;;;;;4.47;2.83;;;22.30;99.90;;;;;;4185866;28;20258;-78
2023/09/06 09:49:32;;;;;;;5.80;2.83;;;22.50;99.90;;;;;;4181013;28;20205;-77
2023/09/06 09:51:35;;;;;;;4.27;2.90;;;22.60;99.90;;;;;;4186876;28;20690;-77
2023/09/06 09:53:40;;;;;;;5.07;2.60;;;22.70;99.90;;;;;;4191265;28;20267;-78
2023/09/06 09:55:47;;;;;;;4.27;2.60;;;22.80;99.90;;;;;;4193176;28;20209;-77
2023/09/06 09:57:49;;;;;;;3.83;2.60;;;22.90;99.90;;;;;;4191061;28;20289;-77
2023/09/06 09:59:54;;;;;;;5.30;2.70;;;22.90;99.90;;;;;;4181714;28;20260;-78
2023/09/06 10:01:58;;;;;;;6.57;2.90;;;23.00;99.90;;;;;;4189676;28;20226;-77
2023/09/06 10:04:05;;;;;;;5.50;2.63;;;23.10;99.90;;;;;;4187771;28;20216;-77
2023/09/06 10:06:07;;;;;;;3.60;2.60;;;23.20;99.90;;;;;;4188603;28;20229;-77
2023/09/06 10:08:11;;;;;;;4.33;2.73;;;23.30;99.90;;;;;;4185567;28;20222;-78
2023/09/06 10:10:14;;;;;;;3.57;2.80;;;23.40;99.90;;;;;;4187443;28;20205;-78
2023/09/06 10:12:17;;;;;;;2.90;2.40;;;23.50;99.90;;;;;;4184656;28;20221;-78
2023/09/06 10:14:19;;;;;;;4.70;2.70;;;23.60;99.90;;;;;;4193043;28;20206;-77
2023/09/06 10:16:21;;;;;;;4.40;2.70;;;23.70;99.90;;;;;;4189254;28;20213;-78
2023/09/06 10:18:22;;;;;;;3.63;2.47;;;23.80;99.90;;;;;;4192468;28;20212;-78
2023/09/06 10:20:26;;;;;;;5.77;2.70;;;23.90;99.90;;;;;;4190450;28;20284;-78
2023/09/06 10:22:28;;;;;;;4.93;2.77;;;24.00;99.90;;;;;;4194355;28;20636;-77
2023/09/06 10:24:34;;;;;;;6.17;2.80;;;24.10;99.90;;;;;;4192231;28;21086;-78
2023/09/06 10:26:40;;;;;;;4.27;2.60;;;24.20;99.90;;;;;;4194155;28;20206;-78
2023/09/06 10:28:42;;;;;;;4.10;2.50;;;24.30;99.90;;;;;;4186824;28;20205;-78
2023/09/06 10:30:45;;;;;;;4.13;2.60;;;24.30;99.90;;;;;;4188741;28;20213;-78
2023/09/06 10:32:47;;;;;;;3.40;2.50;;;24.40;99.90;;;;;;4193493;28;20841;-78
2023/09/06 10:35:21;;;;;;;5.00;2.67;;;24.50;99.90;;;;;;4188155;28;20206;-78
2023/09/06 10:37:42;;;;;;;5.00;2.90;;;24.60;99.90;;;;;;4186192;28;20319;-78
2023/09/06 10:39:54;;;;;;;3.97;2.80;;;24.70;99.90;;;;;;4188073;28;20275;-78